Olathe, KS

8:23 AM CST en Febrero 19, 2017 (GMT -0600)
Northgate Estates | | Change Station
Aviso en curso: Dense Fog Advisory

Alt 970 ft 38.89 °N, 94.82 °W | Updated 35 seconds ago

Nublado
Nublado
50.7 ° F
Sensación térmica 50.7 ° F
N
0.0
Viento Variable Viento desde Sur
Gusts 1.0 mph

Hoy
Alta -- | Baja -- ° F
--% Posibilidad de precipitaciones
Ayer
Alta -- | Baja -- ° F
Precip. -- pul
Presión 29.97 pul
Visibilidad 2.0 Millas
Nubes Nubes dispersas 100 ft
Punto de rocío 50 ° F
Humedad 96%
Precipitaciones 0.00 pul
Espesor de la nieve No disponible.
7:05 AM 6:01 PM
Cuarto menguante, 43% visible
SPECI KIXD 191415Z 16007KT 2SM BR SCT001 09/09 A2997 RMK AO2 T00940094
Presión 29.97 pul
Visibilidad 2.0 Millas
Nubes Nubes dispersas 100 ft
Punto de rocío 50 ° F
Humedad 96%
Precipitaciones 0.00 pul
Espesor de la nieve No disponible.
7:05 AM 6:01 PM
Cuarto menguante, 43% visible
SPECI KIXD 191415Z 16007KT 2SM BR SCT001 09/09 A2997 RMK AO2 T00940094

Get Your Daily Forecast Email!

Thanks for signing up!

Be on the lookout for a verification email in your inbox.

You'll start receiving the daily forecast at 8 AM.

×

10-Day Weather Forecast

Almanac

Astronomía

Feb. 19, 2017 Salida Puesta
Hora real
Crepúsculo civil
Crepúsculo náutico
Crepúsculo astronómico
Luna
Horas de luz
Horas de luz
Tomorrow will be .
, % of the Moon is Illuminated

Extremos de hoy

Máximos del estado Bajos del estado

Community

WunderPhotos

Upload Photos

1,962,540 ¡fotos cargadas!

WunderBlog® & News

Nearby

Calidad del aire

  Calidad del aire Índice AQ Contaminante
Not available.

Grosos de nieve

Estación Profundido Altura

Actividad de terremotos

Ciudad Distance Mag. Tiempo y dato
Magnitud mínima muestra es 2,5.

Temperaturas de aguas costeras

Lugar Temperatura

Stations

Estaciones meteorológicas cercanas

Ubicación de la estación Temp. Vientos helados Punto de rocío Humedad Viento Precip. Alt Actualizado Tipo
                   

Watches & Warnings

Dense Fog Advisory
Issued: 6:23 AM CST Feb. 19, 2017 – National Weather Service

... Dense fog advisory in effect until 9 am CST this morning...

The National Weather Service in Kansas City/Pleasant Hill has
issued a dense fog advisory, which is in effect until 9 am CST
this morning.

* Visibility... areas of dense fog will reduce visibility below a
quarter mile.

* Impacts... dense fog will create sudden reductions in visibility
resulting in hazardous driving conditions.

Precautionary/preparedness actions...

A dense fog advisory means visibilities will frequently be
reduced to less than one quarter mile. If driving, slow down, use
your headlights, and leave plenty of distance ahead of you.